• Join FlightAware (Why Join?)
  • Login
  • US Flag 
09:52PM EDT


 

Airport Tracker/Info


-or-


 

Live Flight TrackerFlight Track Log ✈ N61429 ✈ 07-Jul-2013 ✈ KCPS - KFCM

Flight Track Log - Related Links

Times and Time Zones

All times are in EDT time to prevent confusion due to time zone crossing. See the N61429 flight status page for this flight to view local times or setup timezone preferences in your user account.

Time Position Orientation Groundspeed Altitude Reporting Facility
EDT Latitude Longitude Course Direction KTS MPH feet Rate Location/Type
05:47PM 39.6800 -90.4981 340° North 232 267 6,600  Level Kansas City Center
05:48PM 39.7278 -90.5436 324° Northwest 231 266 6,600  Level Kansas City Center
05:50PM 39.7819 -90.5847 330° Northwest 230 265 6,600  Level Kansas City Center
05:51PM 39.8553 -90.6194 340° North 232 267 6,700 -180 Climbing Kansas City Center
05:52PM 38.8030 -90.2663 340° North  Level Estimated
05:52PM 39.9208 -90.6472 342° North 230 265 6,300  Level Kansas City Center
05:53PM 38.8417 -90.2849 340° North  Level Estimated
05:53PM 39.9758 -90.6819 334° Northwest 232 267 6,400  Level Kansas City Center
05:54PM 40.0358 -90.7186 335° Northwest 235 270 6,400 -60 Level Kansas City Center
05:55PM 40.0964 -90.7539 336° Northwest 236 272 6,300  Descending Kansas City Center
05:55PM 40.1317 -90.7786 332° Northwest 234 269 6,400 120 Climbing Chicago Center
05:56PM 40.1886 -90.8111 336° Northwest 229 264 6,500  Climbing Chicago Center
05:57PM 40.2494 -90.8428 338° Northwest 230 265 6,400  Descending Chicago Center
05:58PM 40.3103 -90.8781 336° Northwest 235 270 6,500  Climbing Chicago Center
05:59PM 40.3714 -90.9156 335° Northwest 238 274 6,500 -120 Level Chicago Center
06:00PM 40.4442 -90.9567 337° Northwest 236 272 6,300 -60 Descending Chicago Center
06:01PM 40.5078 -90.9781 346° North 236 272 6,400  Climbing Chicago Center
06:02PM 40.5722 -91.0028 344° North 238 274 6,400 -60 Level Chicago Center
06:03PM 40.6322 -91.0356 337° Northwest 236 272 6,300  Descending Chicago Center
06:05PM 40.6944 -91.0747 334° Northwest 241 277 6,400 120 Climbing Chicago Center
06:06PM 40.7464 -91.1247 324° Northwest 237 273 6,600  Climbing Chicago Center
06:07PM 40.8133 -91.1739 331° Northwest 231 266 6,400 -120 Descending Chicago Center
06:08PM 40.8806 -91.1989 344° North 245 282 6,400  Level Chicago Center
06:09PM 40.9486 -91.2175 348° North 250 288 6,500  Climbing Chicago Center
06:10PM 41.0128 -91.2392 346° North 243 280 6,500  Level Chicago Center
06:11PM 41.0761 -91.2611 345° North 239 275 6,500 -60 Level Chicago Center
06:12PM 41.1428 -91.2897 342° North 245 282 6,400 -120 Descending Chicago Center
06:13PM 41.2072 -91.3153 343° North 249 287 6,300 -180 Descending Chicago Center
06:14PM 41.2822 -91.3533 339° North 246 283 6,100 60 Descending Chicago Center
06:15PM 41.3439 -91.3889 337° Northwest 247 284 6,500 240 Climbing Chicago Center
06:16PM 41.3992 -91.4344 328° Northwest 237 273 6,700  Climbing Chicago Center
06:18PM 41.5303 -91.5128 336° Northwest 240 276 6,600  Descending Chicago Center
06:19PM 41.5961 -91.5358 345° North 245 282 6,800  Climbing Chicago Center
06:20PM 41.6631 -91.5539 349° North 247 284 6,600 -180 Descending Chicago Center
06:21PM 41.7308 -91.5764 346° North 251 289 6,500 -60 Descending Chicago Center
06:22PM 41.8094 -91.6089 343° North 250 288 6,500  Level Chicago Center
06:23PM 41.8758 -91.6333 345° North 249 287 6,500 -60 Level Chicago Center
06:24PM 41.9439 -91.6506 349° North 250 288 6,400  Descending Chicago Center
06:25PM 42.0078 -91.6764 343° North 246 283 6,500  Climbing Chicago Center
06:26PM 42.0697 -91.7147 335° Northwest 244 281 6,400 -60 Descending Chicago Center
06:27PM 42.1450 -91.7478 342° North 247 284 6,400  Level Chicago Center
06:28PM 42.2047 -91.7842 336° Northwest 238 274 6,500  Climbing Chicago Center
06:29PM 42.2656 -91.8206 336° Northwest 239 275 6,400  Descending Chicago Center
06:30PM 42.3267 -91.8567 336° Northwest 240 276 6,600  Climbing Chicago Center
06:31PM 42.3856 -91.8939 335° Northwest 238 274 6,500 -60 Descending Chicago Center
06:32PM 42.4447 -91.9331 334° Northwest 237 273 6,500  Level Chicago Center
06:33PM 42.5175 -91.9769 336° Northwest 239 275 6,500  Level Chicago Center
06:35PM 42.5786 -92.0125 337° Northwest 239 275 6,500  Level Chicago Center
06:36PM 42.6367 -92.0519 333° Northwest 237 273 6,500  Level Chicago Center
06:37PM 42.6969 -92.0867 337° Northwest 236 272 6,500  Level Chicago Center
06:38PM 42.7586 -92.1197 339° North 237 273 6,500  Level Chicago Center
06:39PM 42.8333 -92.1572 340° North 238 274 6,500  Level Chicago Center
06:40PM 42.8933 -92.1961 335° Northwest 239 275 6,600  Climbing Chicago Center
06:41PM 42.9478 -92.2428 328° Northwest 236 272 6,500  Descending Chicago Center
06:42PM 43.0011 -92.2903 327° Northwest 234 269 6,600 60 Climbing Chicago Center
06:43PM 43.0556 -92.3375 328° Northwest 233 268 6,700 -420 Climbing Chicago Center
06:44PM 43.1161 -92.3781 334° Northwest 240 276 5,800 -660 Descending Chicago Center
06:45PM 43.1925 -92.4300 334° Northwest 249 287 5,400 -540 Descending Chicago Center
06:46PM 43.2578 -92.4708 336° Northwest 256 295 4,700 -480 Descending Chicago Center
06:47PM 43.3242 -92.5119 336° Northwest 260 299 4,500 -240 Descending Chicago Center
06:48PM 43.3903 -92.5467 339° North 258 297 4,300 -120 Descending Chicago Center
06:49PM 43.4708 -92.5797 343° North 256 295 4,300  Level Chicago Center
06:50PM 43.5322 -92.6042 344° North 245 282 4,400 60 Climbing Chicago Center
06:51PM 43.5956 -92.6283 345° North 239 275 4,500 120 Climbing Chicago Center
06:52PM 43.6544 -92.6650 336° Northwest 237 273 4,700 60 Climbing Chicago Center
06:53PM 43.7081 -92.7122 328° Northwest 235 270 4,700  Level Chicago Center
06:54PM 43.7711 -92.7747 324° Northwest 234 269 4,700 -120 Level Chicago Center
06:55PM 43.8294 -92.8258 328° Northwest 233 268 4,500 -120 Descending Chicago Center
06:56PM 43.8806 -92.8531 339° North 234 269 4,500  Level Chicago Center
06:58PM 43.9792 -92.8808 349° North 238 274 4,500  Level Minneapolis Center
06:59PM 44.0386 -92.9106 340° North 231 266 4,600 60 Climbing Minneapolis Center